Time;durP1;ratioP1;P1;durP2;ratioP2;P2;SDS_P1;SDS_P2;PMS_P1;PMS_P2;Temp;Humidity;BMP_temperature;BMP_pressure;BME280_temperature;BME280_humidity;BME280_pressure;Samples;Min_cycle;Max_cycle;Signal;HPM_P1;HPM_P2
2023/08/14 00:00:10;;;;;;;30.80;18.02;;;;;;;;;;5116823;28;20024;-84
2023/08/14 00:02:35;;;;;;;29.17;18.65;;;;;;;;;;5117809;28;20059;-84
2023/08/14 00:05:01;;;;;;;28.70;17.60;;;;;;;;;;5116774;28;20080;-84
2023/08/14 00:07:26;;;;;;;26.15;15.82;;;;;;;;;;5116279;28;20028;-84
2023/08/14 00:09:52;;;;;;;26.15;16.42;;;;;;;;;;5099482;28;20122;-84
2023/08/14 00:12:17;;;;;;;23.40;15.65;;;;;;;;;;5099605;28;20035;-84
2023/08/14 00:14:43;;;;;;;22.70;14.98;;;;;;;;;;5117793;28;20409;-84
2023/08/14 00:17:08;;;;;;;29.75;15.88;;;;;;;;;;5116402;28;20023;-84
2023/08/14 00:19:34;;;;;;;26.88;15.25;;;;;;;;;;5099279;28;20020;-84
2023/08/14 00:21:59;;;;;;;26.52;15.05;;;;;;;;;;5082127;28;20415;-84
2023/08/14 00:24:24;;;;;;;24.73;13.90;;;;;;;;;;5116536;28;20034;-84
2023/08/14 00:26:50;;;;;;;23.77;14.50;;;;;;;;;;5099337;28;20110;-83
2023/08/14 00:29:15;;;;;;;19.67;14.43;;;;;;;;;;5116266;28;20043;-84
2023/08/14 00:31:41;;;;;;;23.95;14.00;;;;;;;;;;5099325;28;20035;-84
2023/08/14 00:34:06;;;;;;;21.75;13.25;;;;;;;;;;5099011;28;20027;-84
2023/08/14 00:36:32;;;;;;;20.60;13.40;;;;;;;;;;5081817;28;20080;-84
2023/08/14 00:38:57;;;;;;;18.67;12.30;;;;;;;;;;5098909;28;20108;-84
2023/08/14 00:41:22;;;;;;;21.55;12.57;;;;;;;;;;5098811;28;20040;-84
2023/08/14 00:43:48;;;;;;;21.83;12.82;;;;;;;;;;5098913;28;20035;-83
2023/08/14 00:46:13;;;;;;;24.85;12.40;;;;;;;;;;5117285;28;20031;-84
2023/08/14 00:48:39;;;;;;;16.63;12.48;;;;;;;;;;5098809;28;20027;-84
2023/08/14 00:51:04;;;;;;;27.23;12.98;;;;;;;;;;5098474;28;20019;-84
2023/08/14 00:53:29;;;;;;;19.85;11.68;;;;;;;;;;5098962;28;20400;-84
2023/08/14 00:55:55;;;;;;;16.90;12.15;;;;;;;;;;5098823;28;20335;-84
2023/08/14 00:58:21;;;;;;;23.17;11.63;;;;;;;;;;5115651;28;20118;-84
2023/08/14 01:00:47;;;;;;;17.67;11.20;;;;;;;;;;5081944;28;20035;-84
2023/08/14 01:03:12;;;;;;;15.68;11.50;;;;;;;;;;5099024;28;20019;-83
2023/08/14 01:05:38;;;;;;;17.92;11.95;;;;;;;;;;5081430;28;20035;-84
2023/08/14 01:08:04;;;;;;;19.58;11.63;;;;;;;;;;5098646;28;20073;-84
2023/08/14 01:10:51;;;;;;;14.60;11.38;;;;;;;;;;5115396;28;20046;-84
2023/08/14 01:13:37;;;;;;;15.80;11.15;;;;;;;;;;5115366;28;20039;-84
2023/08/14 01:16:09;;;;;;;17.90;11.13;;;;;;;;;;5116482;28;20028;-83
2023/08/14 01:18:37;;;;;;;16.52;11.48;;;;;;;;;;5081509;28;20126;-84
2023/08/14 01:21:17;;;;;;;14.00;11.00;;;;;;;;;;5116247;28;20024;-83
2023/08/14 01:23:42;;;;;;;15.05;10.85;;;;;;;;;;5116295;28;20039;-84
2023/08/14 01:26:08;;;;;;;14.40;10.95;;;;;;;;;;5115032;28;20368;-83
2023/08/14 01:28:33;;;;;;;19.27;10.57;;;;;;;;;;5081266;28;20051;-84
2023/08/14 01:30:58;;;;;;;15.98;10.77;;;;;;;;;;5097975;28;20034;-84
2023/08/14 01:33:24;;;;;;;15.73;10.30;;;;;;;;;;5096981;28;20028;-84
2023/08/14 01:35:52;;;;;;;14.25;10.95;;;;;;;;;;5080900;28;20107;-84
2023/08/14 01:38:25;;;;;;;15.50;10.40;;;;;;;;;;5114840;28;20433;-84
2023/08/14 01:41:15;;;;;;;20.80;10.63;;;;;;;;;;5098256;28;20035;-84
2023/08/14 01:43:46;;;;;;;22.80;11.35;;;;;;;;;;5115250;28;20441;-84
2023/08/14 01:46:12;;;;;;;17.05;11.38;;;;;;;;;;5098318;28;20028;-84
2023/08/14 01:48:37;;;;;;;18.17;10.60;;;;;;;;;;5097460;28;20441;-84
2023/08/14 01:51:03;;;;;;;17.42;11.05;;;;;;;;;;5114651;28;20055;-84
2023/08/14 01:53:28;;;;;;;14.13;10.98;;;;;;;;;;5097586;28;20139;-84
2023/08/14 01:55:53;;;;;;;14.98;10.48;;;;;;;;;;5097393;28;20020;-84
2023/08/14 01:58:19;;;;;;;15.30;11.32;;;;;;;;;;5114455;28;20020;-84
2023/08/14 02:00:44;;;;;;;17.40;11.48;;;;;;;;;;5097470;28;20020;-84
2023/08/14 02:03:10;;;;;;;14.10;11.13;;;;;;;;;;5080427;28;20123;-84
2023/08/14 02:05:35;;;;;;;14.80;10.57;;;;;;;;;;5097367;28;20051;-84
2023/08/14 02:08:00;;;;;;;14.35;10.80;;;;;;;;;;5080752;28;20121;-84
2023/08/14 02:10:26;;;;;;;19.08;11.70;;;;;;;;;;5114092;28;20031;-85
2023/08/14 02:12:51;;;;;;;17.65;11.80;;;;;;;;;;5097134;28;20028;-84
2023/08/14 02:15:17;;;;;;;20.25;12.02;;;;;;;;;;5148430;27;20032;-84
2023/08/14 02:17:42;;;;;;;25.48;11.80;;;;;;;;;;5113752;28;20035;-83
2023/08/14 02:20:09;;;;;;;16.50;11.95;;;;;;;;;;5113983;28;20032;-84
2023/08/14 02:22:34;;;;;;;21.42;11.80;;;;;;;;;;5113993;28;20456;-84
2023/08/14 02:25:00;;;;;;;20.60;12.80;;;;;;;;;;5113945;28;20031;-84
2023/08/14 02:27:25;;;;;;;18.38;13.45;;;;;;;;;;5115052;28;20551;-84
2023/08/14 02:29:50;;;;;;;19.30;13.40;;;;;;;;;;5115253;28;20429;-84
2023/08/14 02:32:16;;;;;;;19.83;13.80;;;;;;;;;;5096609;28;20037;-84
2023/08/14 02:34:42;;;;;;;17.88;13.27;;;;;;;;;;5113782;28;20097;-84
2023/08/14 02:37:08;;;;;;;21.13;13.82;;;;;;;;;;5096975;28;20085;-84
2023/08/14 02:39:33;;;;;;;19.23;13.05;;;;;;;;;;5080209;28;20027;-84
2023/08/14 02:41:59;;;;;;;21.83;12.38;;;;;;;;;;5113965;28;20046;-84
2023/08/14 02:44:24;;;;;;;22.35;12.85;;;;;;;;;;5096412;28;20110;-83
2023/08/14 02:46:50;;;;;;;20.38;12.82;;;;;;;;;;5113332;28;20036;-84
2023/08/14 02:49:15;;;;;;;19.95;13.38;;;;;;;;;;5096552;28;20024;-84
2023/08/14 02:51:40;;;;;;;19.80;13.32;;;;;;;;;;5113569;28;20024;-84
2023/08/14 02:54:06;;;;;;;18.02;12.43;;;;;;;;;;5148162;27;20019;-83
2023/08/14 02:56:31;;;;;;;17.10;11.90;;;;;;;;;;5096731;28;20027;-84
2023/08/14 02:58:57;;;;;;;15.70;11.20;;;;;;;;;;5114687;28;20114;-83
2023/08/14 03:01:22;;;;;;;16.25;11.48;;;;;;;;;;5096355;28;20038;-84
2023/08/14 03:03:47;;;;;;;15.93;10.95;;;;;;;;;;5096664;28;20126;-84
2023/08/14 03:06:13;;;;;;;14.07;10.52;;;;;;;;;;5113435;28;20027;-83
2023/08/14 03:08:38;;;;;;;17.30;11.15;;;;;;;;;;5079920;28;20550;-84
2023/08/14 03:11:04;;;;;;;16.83;10.95;;;;;;;;;;5114911;28;20445;-84
2023/08/14 03:13:29;;;;;;;13.80;10.00;;;;;;;;;;5147898;27;20024;-84
2023/08/14 03:15:54;;;;;;;15.98;10.45;;;;;;;;;;5114203;28;20019;-84
2023/08/14 03:18:20;;;;;;;15.10;10.25;;;;;;;;;;5113593;28;20085;-84
2023/08/14 03:20:45;;;;;;;15.32;10.50;;;;;;;;;;5114757;28;20528;-84
2023/08/14 03:23:11;;;;;;;12.48;10.23;;;;;;;;;;5114941;28;20432;-84
2023/08/14 03:25:36;;;;;;;13.88;9.70;;;;;;;;;;5113278;28;20028;-84
2023/08/14 03:28:02;;;;;;;16.73;10.43;;;;;;;;;;5096164;28;20066;-84
2023/08/14 03:30:27;;;;;;;14.60;10.15;;;;;;;;;;5113174;28;20432;-83
2023/08/14 03:32:53;;;;;;;16.92;9.68;;;;;;;;;;5096042;28;20376;-83
2023/08/14 03:35:18;;;;;;;17.90;10.05;;;;;;;;;;5113218;28;20460;-84
2023/08/14 03:37:43;;;;;;;16.00;9.35;;;;;;;;;;5113244;28;20024;-84
2023/08/14 03:40:09;;;;;;;13.80;9.38;;;;;;;;;;5096319;28;20144;-84
2023/08/14 03:42:35;;;;;;;17.73;9.77;;;;;;;;;;5114345;28;20031;-84
2023/08/14 03:45:00;;;;;;;14.88;9.35;;;;;;;;;;5112873;28;20023;-84
2023/08/14 03:47:26;;;;;;;20.25;9.85;;;;;;;;;;5096569;28;20027;-84
2023/08/14 03:49:51;;;;;;;14.57;9.52;;;;;;;;;;5114348;28;20368;-83
2023/08/14 03:52:16;;;;;;;15.27;8.85;;;;;;;;;;5114104;28;20464;-84
2023/08/14 03:54:42;;;;;;;14.25;9.52;;;;;;;;;;5095899;28;20032;-82
2023/08/14 03:57:07;;;;;;;15.13;9.32;;;;;;;;;;5081979;28;20087;-83
2023/08/14 03:59:33;;;;;;;11.82;8.55;;;;;;;;;;5116976;28;20444;-82
2023/08/14 04:01:58;;;;;;;13.63;9.07;;;;;;;;;;5118229;28;20441;-83
2023/08/14 04:04:24;;;;;;;10.70;8.63;;;;;;;;;;5116759;28;20030;-82
2023/08/14 04:06:50;;;;;;;13.52;8.38;;;;;;;;;;5099833;28;20026;-83
2023/08/14 04:09:15;;;;;;;16.50;8.57;;;;;;;;;;5116776;28;20016;-83
2023/08/14 04:11:40;;;;;;;19.13;9.38;;;;;;;;;;5099704;28;20027;-83
2023/08/14 04:14:06;;;;;;;16.92;9.35;;;;;;;;;;5117367;28;20024;-83
2023/08/14 04:16:43;;;;;;;18.77;9.80;;;;;;;;;;5117249;28;20096;-83
2023/08/14 04:19:17;;;;;;;16.25;9.18;;;;;;;;;;5085756;28;20034;-83
2023/08/14 04:21:42;;;;;;;18.48;9.82;;;;;;;;;;5099449;28;20027;-83
2023/08/14 04:24:08;;;;;;;17.92;10.48;;;;;;;;;;5099879;28;20058;-82
2023/08/14 04:26:34;;;;;;;21.27;11.05;;;;;;;;;;5116307;28;20364;-83
2023/08/14 04:28:59;;;;;;;17.25;10.23;;;;;;;;;;5115832;28;20139;-83
2023/08/14 04:31:24;;;;;;;15.40;10.40;;;;;;;;;;5116250;28;20028;-83
2023/08/14 04:33:50;;;;;;;14.13;10.43;;;;;;;;;;5117323;28;20019;-84
2023/08/14 04:36:16;;;;;;;18.17;10.43;;;;;;;;;;5116051;28;20063;-83
2023/08/14 04:38:41;;;;;;;13.27;10.15;;;;;;;;;;5117209;28;20038;-83
2023/08/14 04:41:06;;;;;;;16.77;9.55;;;;;;;;;;5098737;28;20027;-83
2023/08/14 04:43:32;;;;;;;16.65;9.60;;;;;;;;;;5081936;28;20356;-83
2023/08/14 04:45:58;;;;;;;13.95;8.85;;;;;;;;;;5117043;28;20028;-83
2023/08/14 04:48:23;;;;;;;17.80;9.48;;;;;;;;;;5116337;28;20420;-83
2023/08/14 04:50:49;;;;;;;15.00;8.35;;;;;;;;;;5117471;28;20039;-83
2023/08/14 04:53:14;;;;;;;21.00;8.50;;;;;;;;;;5115824;28;20410;-83
2023/08/14 04:55:39;;;;;;;14.38;8.82;;;;;;;;;;5117072;28;20031;-83
2023/08/14 04:58:05;;;;;;;10.68;8.45;;;;;;;;;;5098444;28;20491;-83
2023/08/14 05:00:30;;;;;;;15.02;8.85;;;;;;;;;;5082174;28;20089;-83
2023/08/14 05:02:56;;;;;;;11.40;7.88;;;;;;;;;;5115899;28;20421;-82
2023/08/14 05:05:21;;;;;;;10.57;8.15;;;;;;;;;;5115502;28;20067;-83
2023/08/14 05:07:46;;;;;;;13.00;8.40;;;;;;;;;;5098136;28;20110;-82
2023/08/14 05:10:12;;;;;;;14.80;8.05;;;;;;;;;;5098257;28;20028;-83
2023/08/14 05:12:37;;;;;;;11.73;7.80;;;;;;;;;;5098369;28;20472;-83
2023/08/14 05:15:03;;;;;;;17.63;8.07;;;;;;;;;;5116452;28;20024;-83
2023/08/14 05:17:29;;;;;;;13.63;7.57;;;;;;;;;;5116399;28;20032;-83
2023/08/14 05:19:55;;;;;;;14.50;7.85;;;;;;;;;;5098322;28;20125;-83
2023/08/14 05:22:21;;;;;;;12.65;8.23;;;;;;;;;;5114964;28;20475;-83
2023/08/14 05:24:47;;;;;;;11.05;7.63;;;;;;;;;;5116071;28;20130;-83
2023/08/14 05:27:12;;;;;;;12.52;7.68;;;;;;;;;;5149534;27;20122;-82
2023/08/14 05:29:38;;;;;;;12.65;7.75;;;;;;;;;;5098446;28;20023;-83
2023/08/14 05:32:04;;;;;;;10.10;7.30;;;;;;;;;;5116440;28;20402;-83
2023/08/14 05:34:30;;;;;;;16.23;7.32;;;;;;;;;;5098413;28;20023;-83
2023/08/14 05:36:56;;;;;;;12.40;7.45;;;;;;;;;;5115177;28;20073;-83
2023/08/14 05:39:21;;;;;;;12.45;7.57;;;;;;;;;;5114820;28;20027;-84
2023/08/14 05:41:46;;;;;;;10.07;7.75;;;;;;;;;;5115145;28;20031;-84
2023/08/14 05:44:12;;;;;;;10.98;7.00;;;;;;;;;;5080764;28;20066;-84
2023/08/14 05:46:37;;;;;;;13.27;7.20;;;;;;;;;;5114730;28;20024;-83
2023/08/14 05:49:03;;;;;;;9.75;7.55;;;;;;;;;;5115108;28;20024;-84
2023/08/14 05:51:28;;;;;;;11.70;7.40;;;;;;;;;;5114519;28;20028;-83
2023/08/14 05:53:54;;;;;;;14.43;7.65;;;;;;;;;;5114329;28;20027;-84
2023/08/14 05:56:19;;;;;;;8.80;7.35;;;;;;;;;;5114431;28;20020;-84
2023/08/14 05:58:45;;;;;;;10.30;7.05;;;;;;;;;;5114500;28;20051;-84
2023/08/14 06:01:10;;;;;;;11.15;6.72;;;;;;;;;;5097363;28;20459;-84
2023/08/14 06:03:38;;;;;;;10.32;7.13;;;;;;;;;;5114552;28;20058;-84
2023/08/14 06:06:04;;;;;;;11.18;6.95;;;;;;;;;;5080994;28;20122;-84
2023/08/14 06:08:29;;;;;;;12.35;6.40;;;;;;;;;;5097657;28;20038;-84
2023/08/14 06:10:55;;;;;;;11.02;6.75;;;;;;;;;;5114555;28;20126;-84
2023/08/14 06:13:20;;;;;;;8.10;6.25;;;;;;;;;;5097460;28;20493;-84
2023/08/14 06:15:45;;;;;;;10.15;6.47;;;;;;;;;;5097141;28;20034;-84
2023/08/14 06:18:11;;;;;;;11.57;6.95;;;;;;;;;;5080580;28;20037;-84
2023/08/14 06:20:36;;;;;;;9.15;6.80;;;;;;;;;;5097191;28;20029;-84
2023/08/14 06:23:02;;;;;;;9.50;6.97;;;;;;;;;;5079967;28;20123;-84
2023/08/14 06:25:31;;;;;;;11.43;6.78;;;;;;;;;;5080050;28;20077;-84
2023/08/14 06:27:56;;;;;;;12.48;7.10;;;;;;;;;;5080966;28;20143;-84
2023/08/14 06:30:23;;;;;;;14.45;7.35;;;;;;;;;;5097183;28;20047;-84
2023/08/14 06:32:49;;;;;;;12.48;7.32;;;;;;;;;;5113884;28;20088;-85
2023/08/14 06:35:14;;;;;;;9.48;6.90;;;;;;;;;;5113842;28;20114;-84
2023/08/14 06:37:40;;;;;;;11.77;7.47;;;;;;;;;;5096725;28;20028;-85
2023/08/14 06:40:06;;;;;;;10.88;7.72;;;;;;;;;;5115024;28;20020;-84
2023/08/14 06:42:32;;;;;;;13.88;7.95;;;;;;;;;;5113696;28;20023;-85
2023/08/14 06:44:57;;;;;;;10.75;7.50;;;;;;;;;;5080205;28;20361;-84
2023/08/14 06:47:23;;;;;;;18.42;7.40;;;;;;;;;;5096903;28;20440;-85
2023/08/14 06:49:48;;;;;;;15.70;8.52;;;;;;;;;;5114802;28;20023;-85
2023/08/14 06:52:14;;;;;;;13.93;8.45;;;;;;;;;;5096740;28;20409;-84
2023/08/14 06:54:39;;;;;;;9.75;8.20;;;;;;;;;;5113517;28;20019;-86
2023/08/14 06:57:05;;;;;;;14.20;10.90;;;;;;;;;;5113506;28;20027;-84
2023/08/14 06:59:30;;;;;;;19.35;8.68;;;;;;;;;;5096820;28;20103;-84
2023/08/14 07:01:57;;;;;;;16.45;8.57;;;;;;;;;;5096385;28;20063;-85
2023/08/14 07:04:22;;;;;;;11.57;8.48;;;;;;;;;;5113762;28;20032;-84
2023/08/14 07:06:48;;;;;;;17.73;8.63;;;;;;;;;;5096137;28;20030;-84
2023/08/14 07:09:16;;;;;;;11.75;8.30;;;;;;;;;;5096710;28;20347;-84
2023/08/14 07:11:42;;;;;;;14.15;8.98;;;;;;;;;;5114771;28;20052;-84
2023/08/14 07:14:07;;;;;;;10.70;8.18;;;;;;;;;;5113354;28;20452;-85
2023/08/14 07:16:33;;;;;;;14.85;8.95;;;;;;;;;;5113381;28;20026;-85
2023/08/14 07:18:58;;;;;;;13.02;8.27;;;;;;;;;;5096837;28;20437;-84
2023/08/14 07:21:24;;;;;;;14.27;8.38;;;;;;;;;;5096783;28;20031;-84
2023/08/14 07:23:49;;;;;;;15.93;8.73;;;;;;;;;;5113579;28;20084;-84
2023/08/14 07:26:15;;;;;;;13.52;8.00;;;;;;;;;;5096899;28;20026;-84
2023/08/14 07:28:43;;;;;;;12.07;8.40;;;;;;;;;;5108733;28;20071;-85
2023/08/14 07:31:08;;;;;;;13.80;7.95;;;;;;;;;;5131234;28;20078;-84
2023/08/14 07:33:34;;;;;;;16.95;8.32;;;;;;;;;;5129148;28;20031;-84
2023/08/14 07:35:59;;;;;;;13.68;7.90;;;;;;;;;;5100181;28;20428;-85
2023/08/14 07:38:28;;;;;;;13.98;7.70;;;;;;;;;;5116216;28;20113;-83
2023/08/14 07:40:54;;;;;;;12.07;8.50;;;;;;;;;;5123008;28;20420;-83
2023/08/14 07:43:19;;;;;;;13.60;8.02;;;;;;;;;;5100247;28;20118;-84
2023/08/14 07:45:47;;;;;;;12.18;8.85;;;;;;;;;;5083270;28;20706;-89
2023/08/14 07:48:12;;;;;;;20.70;9.97;;;;;;;;;;5100877;28;20049;-86
2023/08/14 07:50:38;;;;;;;16.23;7.88;;;;;;;;;;5083197;28;20730;-83
2023/08/14 07:53:03;;;;;;;12.40;8.50;;;;;;;;;;5118545;28;20114;-84
2023/08/14 07:55:29;;;;;;;12.48;7.60;;;;;;;;;;5118468;28;20032;-84
2023/08/14 07:57:54;;;;;;;10.90;7.50;;;;;;;;;;5118000;27;20026;-82
2023/08/14 08:00:20;;;;;;;14.30;8.27;;;;;;;;;;5117875;28;20488;-85
2023/08/14 08:02:45;;;;;;;12.57;8.13;;;;;;;;;;5083207;28;20349;-86
2023/08/14 08:05:11;;;;;;;17.35;8.05;;;;;;;;;;5100044;28;20448;-86
2023/08/14 08:07:36;;;;;;;17.60;7.65;;;;;;;;;;5083357;28;20027;-88
2023/08/14 08:10:02;;;;;;;16.50;8.45;;;;;;;;;;5100329;28;20427;-85
2023/08/14 08:12:28;;;;;;;15.65;7.78;;;;;;;;;;5102059;28;20488;-88
2023/08/14 08:14:53;;;;;;;18.17;8.20;;;;;;;;;;5117025;28;20028;-86
2023/08/14 08:17:19;;;;;;;12.57;8.35;;;;;;;;;;5116627;28;20034;-83
2023/08/14 08:19:46;;;;;;;10.60;8.05;;;;;;;;;;5117289;28;20020;-84
2023/08/14 08:22:12;;;;;;;12.75;7.85;;;;;;;;;;5082843;28;20040;-85
2023/08/14 08:24:37;;;;;;;14.18;7.90;;;;;;;;;;5117461;28;20033;-85
2023/08/14 08:27:03;;;;;;;13.30;8.05;;;;;;;;;;5116413;28;20028;-84
2023/08/14 08:29:28;;;;;;;20.00;8.50;;;;;;;;;;5116250;28;20027;-83
2023/08/14 08:31:55;;;;;;;13.95;8.95;;;;;;;;;;5117313;28;20034;-85
2023/08/14 08:34:20;;;;;;;12.77;8.18;;;;;;;;;;5116006;28;20023;-84
2023/08/14 08:36:45;;;;;;;18.38;8.27;;;;;;;;;;5099311;28;20046;-84
2023/08/14 08:39:11;;;;;;;17.15;8.48;;;;;;;;;;5098919;28;20073;-84
2023/08/14 08:41:39;;;;;;;16.15;8.13;;;;;;;;;;5115900;28;20032;-83
2023/08/14 08:44:07;;;;;;;15.27;7.93;;;;;;;;;;5115757;28;20080;-83
2023/08/14 08:46:39;;;;;;;;;;;;;;;;;;5116266;28;20050;-84
2023/08/14 08:49:04;;;;;;;14.32;8.05;;;;;;;;;;5116786;27;19918;-84
2023/08/14 08:51:30;;;;;;;22.17;12.00;;;;;;;;;;5098860;28;20023;-84
2023/08/14 08:53:56;;;;;;;12.38;8.30;;;;;;;;;;5098929;28;20410;-84
2023/08/14 08:56:22;;;;;;;18.55;8.25;;;;;;;;;;5115646;28;20445;-84
2023/08/14 08:58:48;;;;;;;12.77;8.43;;;;;;;;;;5082001;28;20059;-84
2023/08/14 09:01:13;;;;;;;11.75;8.50;;;;;;;;;;5081616;28;20032;-83
2023/08/14 09:03:39;;;;;;;14.70;8.25;;;;;;;;;;5098105;28;20023;-84
2023/08/14 09:06:05;;;;;;;18.20;8.48;;;;;;;;;;5116630;28;20387;-83
2023/08/14 09:08:31;;;;;;;13.57;8.90;;;;;;;;;;5115411;28;20023;-83
2023/08/14 09:10:56;;;;;;;13.43;8.30;;;;;;;;;;5098852;28;20458;-83
2023/08/14 09:13:22;;;;;;;20.83;8.93;;;;;;;;;;5115561;28;20333;-84
2023/08/14 09:15:47;;;;;;;19.00;8.75;;;;;;;;;;5098453;28;20031;-83
2023/08/14 09:18:13;;;;;;;14.60;8.35;;;;;;;;;;5115058;28;20027;-82
2023/08/14 09:20:39;;;;;;;14.05;8.27;;;;;;;;;;5115216;28;20473;-83
2023/08/14 09:23:04;;;;;;;15.50;7.85;;;;;;;;;;5081635;28;20126;-83
2023/08/14 09:25:30;;;;;;;19.50;8.75;;;;;;;;;;5098224;28;20114;-82
2023/08/14 09:27:56;;;;;;;14.82;8.20;;;;;;;;;;5081498;28;20051;-82
2023/08/14 09:30:23;;;;;;;16.25;8.80;;;;;;;;;;5098108;28;20027;-83
2023/08/14 09:32:49;;;;;;;13.43;8.52;;;;;;;;;;5098066;28;20023;-84
2023/08/14 09:35:14;;;;;;;14.65;7.97;;;;;;;;;;5098211;28;20445;-83
2023/08/14 09:37:40;;;;;;;10.35;7.95;;;;;;;;;;5098163;28;20043;-82
2023/08/14 09:40:13;;;;;;;16.42;8.57;;;;;;;;;;5098265;28;20066;-83
2023/08/14 09:42:38;;;;;;;15.93;9.30;;;;;;;;;;5114807;28;20032;-83
2023/08/14 09:45:04;;;;;;;14.77;8.45;;;;;;;;;;5116531;28;20015;-83
2023/08/14 09:47:30;;;;;;;14.52;8.35;;;;;;;;;;5115865;27;20062;-83
2023/08/14 09:49:56;;;;;;;11.07;8.55;;;;;;;;;;5114709;28;20024;-82
2023/08/14 09:52:23;;;;;;;17.60;9.93;;;;;;;;;;5097812;28;20027;-83
2023/08/14 09:54:51;;;;;;;16.27;10.13;;;;;;;;;;5096977;28;20067;-83
2023/08/14 09:57:21;;;;;;;17.50;9.18;;;;;;;;;;5113813;28;20498;-83
2023/08/14 09:59:46;;;;;;;18.55;9.98;;;;;;;;;;5114348;28;20123;-83
2023/08/14 10:02:13;;;;;;;20.48;9.88;;;;;;;;;;5097356;28;20085;-83
2023/08/14 10:04:38;;;;;;;13.18;9.73;;;;;;;;;;5097583;28;20104;-83
2023/08/14 10:07:04;;;;;;;13.30;9.18;;;;;;;;;;5114460;28;20077;-83
2023/08/14 10:09:30;;;;;;;12.80;9.07;;;;;;;;;;5113854;28;20027;-82
2023/08/14 10:11:57;;;;;;;15.70;9.52;;;;;;;;;;5080197;28;20537;-83
2023/08/14 10:14:23;;;;;;;22.33;9.60;;;;;;;;;;5096728;28;20444;-83
2023/08/14 10:16:48;;;;;;;14.43;8.82;;;;;;;;;;5096676;28;20035;-83
2023/08/14 10:19:13;;;;;;;21.15;9.15;;;;;;;;;;5079811;28;20456;-82
2023/08/14 10:21:40;;;;;;;17.77;8.90;;;;;;;;;;5079892;28;20456;-82
2023/08/14 10:24:06;;;;;;;13.90;8.82;;;;;;;;;;5114211;28;20039;-83
2023/08/14 10:26:32;;;;;;;16.95;8.85;;;;;;;;;;5096873;28;20460;-83
2023/08/14 10:28:58;;;;;;;13.80;8.82;;;;;;;;;;5096839;28;20090;-83
2023/08/14 10:31:25;;;;;;;19.52;9.38;;;;;;;;;;5080013;28;20074;-84
2023/08/14 10:33:52;;;;;;;24.67;10.02;;;;;;;;;;5114706;28;20048;-82
2023/08/14 10:36:22;;;;;;;22.25;9.20;;;;;;;;;;5113977;28;20349;-83
2023/08/14 10:38:48;;;;;;;20.77;8.90;;;;;;;;;;5097502;28;20047;-83
2023/08/14 10:41:17;;;;;;;18.45;9.00;;;;;;;;;;5113671;28;20122;-83
2023/08/14 10:43:43;;;;;;;20.13;9.63;;;;;;;;;;5114152;28;20039;-84
2023/08/14 10:46:09;;;;;;;20.38;9.50;;;;;;;;;;5114559;28;20035;-83
2023/08/14 10:48:38;;;;;;;18.33;10.65;;;;;;;;;;5113846;28;20031;-83
2023/08/14 10:51:03;;;;;;;14.18;9.05;;;;;;;;;;5096566;28;20028;-83
2023/08/14 10:53:30;;;;;;;15.15;8.95;;;;;;;;;;5130560;27;20035;-84
2023/08/14 10:55:56;;;;;;;13.32;8.50;;;;;;;;;;5096096;28;20031;-83
2023/08/14 10:58:31;;;;;;;13.88;9.38;;;;;;;;;;5112330;28;20136;-83
2023/08/14 11:00:57;;;;;;;15.68;8.98;;;;;;;;;;5111596;28;20031;-84
2023/08/14 11:03:22;;;;;;;15.95;8.60;;;;;;;;;;5094792;28;20590;-84
2023/08/14 11:05:48;;;;;;;12.70;9.20;;;;;;;;;;5093708;28;20337;-84
2023/08/14 11:08:13;;;;;;;16.95;9.65;;;;;;;;;;5094554;28;20062;-83
2023/08/14 11:10:39;;;;;;;21.50;8.15;;;;;;;;;;5094922;28;20120;-84
2023/08/14 11:13:08;;;;;;;17.20;8.65;;;;;;;;;;5094458;28;20032;-83
2023/08/14 11:15:34;;;;;;;21.98;9.18;;;;;;;;;;5096661;28;20348;-84
2023/08/14 11:17:59;;;;;;;12.90;8.93;;;;;;;;;;5113804;28;20023;-84
2023/08/14 11:20:29;;;;;;;19.15;8.60;;;;;;;;;;5113517;28;20046;-83
2023/08/14 11:22:54;;;;;;;15.55;8.48;;;;;;;;;;5113189;28;20023;-82
2023/08/14 11:25:20;;;;;;;13.15;7.68;;;;;;;;;;5096185;28;20129;-81
2023/08/14 11:27:51;;;;;;;14.85;8.32;;;;;;;;;;5112715;28;20043;-82
2023/08/14 11:30:17;;;;;;;16.38;9.05;;;;;;;;;;5096421;28;20081;-82
2023/08/14 11:32:42;;;;;;;14.05;8.30;;;;;;;;;;5114521;28;20028;-83
2023/08/14 11:35:08;;;;;;;17.55;8.50;;;;;;;;;;5079891;28;20038;-82
2023/08/14 11:37:34;;;;;;;17.90;8.60;;;;;;;;;;5113097;28;20350;-82
2023/08/14 11:40:07;;;;;;;11.23;8.38;;;;;;;;;;5079948;28;20030;-82
2023/08/14 11:42:33;;;;;;;14.98;8.48;;;;;;;;;;5112857;28;20043;-82
2023/08/14 11:45:03;;;;;;;17.20;8.52;;;;;;;;;;5112951;28;20479;-83
2023/08/14 11:47:33;;;;;;;20.17;9.10;;;;;;;;;;5096372;28;20054;-81
2023/08/14 11:49:58;;;;;;;16.63;8.88;;;;;;;;;;5079348;28;20039;-82
2023/08/14 11:52:27;;;;;;;26.75;8.85;;;;;;;;;;5113009;28;20106;-83
2023/08/14 11:54:54;;;;;;;18.77;8.60;;;;;;;;;;5112992;28;20067;-82
2023/08/14 11:57:25;;;;;;;15.77;8.30;;;;;;;;;;5096043;28;20031;-82
2023/08/14 11:59:51;;;;;;;12.65;8.30;;;;;;;;;;5113110;28;20038;-83
2023/08/14 12:02:17;;;;;;;24.02;8.63;;;;;;;;;;5095906;28;20031;-82
2023/08/14 12:04:43;;;;;;;18.65;8.52;;;;;;;;;;5113015;28;20031;-82
2023/08/14 12:07:08;;;;;;;16.48;8.60;;;;;;;;;;5113931;28;20415;-83
2023/08/14 12:09:37;;;;;;;15.02;8.88;;;;;;;;;;5113904;28;20116;-83
2023/08/14 12:12:03;;;;;;;13.52;8.40;;;;;;;;;;5095663;28;20020;-84
2023/08/14 12:14:42;;;;;;;18.80;9.02;;;;;;;;;;5095853;28;20176;-82
2023/08/14 12:17:11;;;;;;;15.57;8.70;;;;;;;;;;5113477;28;20032;-82
2023/08/14 12:19:39;;;;;;;17.17;8.27;;;;;;;;;;5100599;28;20588;-83
2023/08/14 12:22:08;;;;;;;14.15;8.93;;;;;;;;;;5116253;28;20039;-83
2023/08/14 12:24:40;;;;;;;12.32;7.95;;;;;;;;;;5117413;28;20376;-83
2023/08/14 12:27:24;;;;;;;13.98;8.57;;;;;;;;;;5098974;28;20055;-83
2023/08/14 12:29:50;;;;;;;19.95;8.60;;;;;;;;;;5117304;28;20165;-82
2023/08/14 12:32:17;;;;;;;14.68;8.70;;;;;;;;;;5116456;28;20046;-82
2023/08/14 12:34:42;;;;;;;23.70;8.85;;;;;;;;;;5099261;28;20020;-83
2023/08/14 12:37:11;;;;;;;18.38;9.38;;;;;;;;;;5116060;28;20352;-82
2023/08/14 12:39:36;;;;;;;15.40;9.13;;;;;;;;;;5116386;28;20032;-82
2023/08/14 12:42:01;;;;;;;16.80;8.88;;;;;;;;;;5115767;28;20043;-83
2023/08/14 12:44:27;;;;;;;26.08;9.30;;;;;;;;;;5117001;28;20031;-84
2023/08/14 12:46:53;;;;;;;14.05;8.95;;;;;;;;;;5116339;28;20102;-83
2023/08/14 12:49:19;;;;;;;13.05;8.82;;;;;;;;;;5099173;28;20429;-84
2023/08/14 12:51:45;;;;;;;16.48;9.00;;;;;;;;;;5115908;28;20030;-83
2023/08/14 12:54:10;;;;;;;23.05;8.98;;;;;;;;;;5081818;28;20076;-85
2023/08/14 12:56:39;;;;;;;18.48;8.90;;;;;;;;;;5081687;28;20027;-84
2023/08/14 12:59:05;;;;;;;14.70;9.50;;;;;;;;;;5116001;28;20024;-84
2023/08/14 13:01:31;;;;;;;26.25;8.75;;;;;;;;;;5098812;28;20436;-84
2023/08/14 13:03:56;;;;;;;18.13;9.23;;;;;;;;;;5116585;28;20027;-81
2023/08/14 13:06:22;;;;;;;22.63;9.80;;;;;;;;;;5082242;28;20096;-83
2023/08/14 13:08:47;;;;;;;16.90;9.57;;;;;;;;;;5098275;28;20027;-83
2023/08/14 13:11:13;;;;;;;19.05;9.65;;;;;;;;;;5098566;28;20429;-84
2023/08/14 13:13:38;;;;;;;18.83;9.30;;;;;;;;;;5115928;28;20036;-82
2023/08/14 13:16:04;;;;;;;17.45;8.90;;;;;;;;;;5115199;28;20038;-84
2023/08/14 13:18:30;;;;;;;19.35;9.77;;;;;;;;;;5098423;28;20540;-82
2023/08/14 13:20:55;;;;;;;22.05;9.80;;;;;;;;;;5115405;28;20345;-82
2023/08/14 13:23:20;;;;;;;15.65;9.68;;;;;;;;;;5116328;28;20027;-83
2023/08/14 13:25:46;;;;;;;17.05;9.93;;;;;;;;;;5116335;28;20032;-83
2023/08/14 13:28:11;;;;;;;20.20;10.77;;;;;;;;;;5116135;28;20047;-82
2023/08/14 13:30:37;;;;;;;18.65;9.05;;;;;;;;;;5097599;28;20135;-83
2023/08/14 13:33:02;;;;;;;19.17;9.50;;;;;;;;;;5116105;28;20409;-83
2023/08/14 13:35:28;;;;;;;16.67;9.68;;;;;;;;;;5081376;28;20118;-83
2023/08/14 13:37:54;;;;;;;18.67;10.00;;;;;;;;;;5114922;28;20059;-83
2023/08/14 13:40:20;;;;;;;18.45;9.35;;;;;;;;;;5116310;28;20110;-83
2023/08/14 13:42:45;;;;;;;21.40;9.80;;;;;;;;;;5097899;28;20035;-83
2023/08/14 13:45:10;;;;;;;22.73;10.10;;;;;;;;;;5081398;28;20456;-83
2023/08/14 13:47:36;;;;;;;16.80;9.63;;;;;;;;;;5131994;27;20023;-83
2023/08/14 13:50:01;;;;;;;18.88;9.75;;;;;;;;;;5097990;28;20344;-85
2023/08/14 13:52:27;;;;;;;16.92;9.15;;;;;;;;;;5114413;28;20035;-84
2023/08/14 13:54:53;;;;;;;16.08;9.98;;;;;;;;;;5114604;28;20035;-84
2023/08/14 13:57:18;;;;;;;22.23;9.95;;;;;;;;;;5114474;28;20027;-84
2023/08/14 13:59:43;;;;;;;25.00;10.80;;;;;;;;;;5115670;28;20028;-83
2023/08/14 14:02:10;;;;;;;18.63;10.45;;;;;;;;;;5097510;28;20027;-84
2023/08/14 14:04:36;;;;;;;20.58;10.52;;;;;;;;;;5115742;28;20110;-84
2023/08/14 14:07:01;;;;;;;24.42;10.85;;;;;;;;;;5080187;28;20169;-84
2023/08/14 14:09:27;;;;;;;23.35;10.52;;;;;;;;;;5080828;28;20346;-84
2023/08/14 14:11:52;;;;;;;26.10;11.35;;;;;;;;;;5097285;28;20032;-84
2023/08/14 14:14:17;;;;;;;25.60;11.40;;;;;;;;;;5115430;28;20023;-84
2023/08/14 14:16:56;;;;;;;18.42;10.40;;;;;;;;;;5114266;28;20023;-82
2023/08/14 14:19:22;;;;;;;19.10;9.93;;;;;;;;;;5115912;28;20046;-84